createdAt,value
2018-03-18T00:00:14.332Z,94839.66
2018-03-18T00:02:45.830Z,94839.31
2018-03-18T00:05:13.878Z,94844.03
2018-03-18T00:07:41.552Z,94842.64
2018-03-18T00:10:09.346Z,94849.52
2018-03-18T00:12:36.916Z,94853.30
2018-03-18T00:15:04.622Z,94851.21
2018-03-18T00:17:32.298Z,94852.08
2018-03-18T00:19:59.914Z,94845.31
2018-03-18T00:22:27.526Z,94853.50
2018-03-18T00:24:55.134Z,94851.43
2018-03-18T00:27:23.662Z,94854.42
2018-03-18T00:29:51.274Z,94847.70
2018-03-18T00:32:18.884Z,94846.13
2018-03-18T00:34:46.467Z,94847.11
2018-03-18T00:37:15.875Z,94847.45
2018-03-18T00:39:43.557Z,94846.02
2018-03-18T00:42:11.303Z,94847.31
2018-03-18T00:44:39.036Z,94845.38
2018-03-18T00:47:06.951Z,94844.64
2018-03-18T00:49:35.480Z,94838.88
2018-03-18T00:52:03.333Z,94840.63
2018-03-18T00:54:30.976Z,94836.64
2018-03-18T00:56:58.574Z,94845.40
2018-03-18T00:59:26.174Z,94847.22
2018-03-18T01:01:54.021Z,94847.63
2018-03-18T01:04:21.978Z,94845.98
2018-03-18T01:06:49.597Z,94844.38
2018-03-18T01:09:17.188Z,94848.14
2018-03-18T01:11:44.807Z,94848.91
2018-03-18T01:14:12.588Z,94848.05
2018-03-18T01:16:40.171Z,94842.23
2018-03-18T01:19:08.578Z,94841.22
2018-03-18T01:21:36.161Z,94840.14
2018-03-18T01:24:03.740Z,94836.45
2018-03-18T01:26:31.328Z,94840.08
2018-03-18T01:28:58.916Z,94842.02
2018-03-18T01:31:26.682Z,94836.67
2018-03-18T01:33:54.292Z,94837.52
2018-03-18T01:36:21.871Z,94836.07
2018-03-18T01:38:49.450Z,94829.69
2018-03-18T01:41:17.077Z,94824.20
2018-03-18T01:43:44.653Z,94832.02
2018-03-18T01:46:12.258Z,94825.98
2018-03-18T01:48:39.918Z,94830.70
2018-03-18T01:51:08.328Z,94819.73
2018-03-18T01:53:35.908Z,94828.29
2018-03-18T01:56:03.489Z,94828.58
2018-03-18T01:58:31.108Z,94828.09
2018-03-18T02:00:58.704Z,94825.05
2018-03-18T02:03:26.296Z,94825.02
2018-03-18T02:05:53.908Z,94819.62
2018-03-18T02:08:21.469Z,94822.11
2018-03-18T02:10:49.054Z,94826.20
2018-03-18T02:13:16.653Z,94834.67
2018-03-18T02:15:44.290Z,94831.20
2018-03-18T02:18:11.890Z,94831.63
2018-03-18T02:20:39.692Z,94833.42
2018-03-18T02:23:07.596Z,94836.13
2018-03-18T02:25:35.261Z,94833.64
2018-03-18T02:28:02.836Z,94831.08
2018-03-18T02:30:30.399Z,94829.41
2018-03-18T02:32:58.065Z,94828.30
2018-03-18T02:35:26.069Z,94828.15
2018-03-18T02:37:53.673Z,94828.31
2018-03-18T02:40:21.265Z,94832.41
2018-03-18T02:42:48.922Z,94826.27
2018-03-18T02:45:17.458Z,94818.71
2018-03-18T02:47:45.122Z,94832.24
2018-03-18T02:50:12.853Z,94822.00
2018-03-18T02:52:40.463Z,94824.42
2018-03-18T02:55:08.261Z,94826.03
2018-03-18T02:57:35.806Z,94818.09
2018-03-18T03:00:03.584Z,94820.17
2018-03-18T03:02:31.129Z,94822.62
2018-03-18T03:05:00.323Z,94813.45
2018-03-18T03:07:30.443Z,94813.19
2018-03-18T03:09:58.034Z,94811.53
2018-03-18T03:12:25.664Z,94809.83
2018-03-18T03:14:53.243Z,94811.45
2018-03-18T03:17:23.148Z,94811.70
2018-03-18T03:19:51.199Z,94811.70
2018-03-18T03:22:19.250Z,94810.94
2018-03-18T03:24:50.037Z,94815.60
2018-03-18T03:27:17.650Z,94815.69
2018-03-18T03:29:45.283Z,94813.87
2018-03-18T03:32:12.867Z,94813.93
2018-03-18T03:34:41.722Z,94805.94
2018-03-18T03:37:09.801Z,94809.06
2018-03-18T03:39:37.370Z,94812.01
2018-03-18T03:42:04.884Z,94814.02
2018-03-18T03:44:32.470Z,94817.19
2018-03-18T03:47:00.062Z,94817.14
2018-03-18T03:49:27.636Z,94819.00
2018-03-18T03:51:55.235Z,94820.67
2018-03-18T03:54:24.975Z,94824.05
2018-03-18T03:56:52.610Z,94821.85
2018-03-18T03:59:20.417Z,94821.64
2018-03-18T04:01:49.684Z,94815.87
2018-03-18T04:04:17.254Z,94817.69
2018-03-18T04:06:44.825Z,94819.69
2018-03-18T04:09:12.913Z,94816.45
2018-03-18T04:11:40.480Z,94821.91
2018-03-18T04:14:08.053Z,94818.65
2018-03-18T04:16:35.642Z,94819.55
2018-03-18T04:19:03.214Z,94824.08
2018-03-18T04:21:30.850Z,94809.30
2018-03-18T04:23:58.422Z,94819.22
2018-03-18T04:26:25.984Z,94811.78
2018-03-18T04:28:53.625Z,94814.64
2018-03-18T04:31:21.177Z,94817.91
2018-03-18T04:33:48.758Z,94811.06
2018-03-18T04:36:16.610Z,94809.06
2018-03-18T04:38:44.196Z,94809.29
2018-03-18T04:41:12.508Z,94814.29
2018-03-18T04:43:40.116Z,94813.45
2018-03-18T04:46:07.718Z,94813.23
2018-03-18T04:48:35.295Z,94817.14
2018-03-18T04:51:02.874Z,94822.61
2018-03-18T04:53:33.788Z,94820.88
2018-03-18T04:56:01.350Z,94822.20
2018-03-18T04:58:28.914Z,94819.77
2018-03-18T05:00:56.485Z,94824.70
2018-03-18T05:03:24.080Z,94817.84
2018-03-18T05:05:51.678Z,94823.10
2018-03-18T05:08:19.391Z,94819.01
2018-03-18T05:10:46.975Z,94822.46
2018-03-18T05:13:14.530Z,94814.91
2018-03-18T05:15:42.080Z,94820.03
2018-03-18T05:18:09.846Z,94820.31
2018-03-18T05:20:37.449Z,94822.73
2018-03-18T05:23:05.179Z,94825.78
2018-03-18T05:25:32.726Z,94830.72
2018-03-18T05:28:00.534Z,94822.55
2018-03-18T05:30:29.367Z,94833.07
2018-03-18T05:32:56.936Z,94829.91
2018-03-18T05:35:24.859Z,94831.43
2018-03-18T05:37:52.462Z,94834.67
2018-03-18T05:40:20.211Z,94831.29
2018-03-18T05:42:47.819Z,94838.42
2018-03-18T05:45:15.416Z,94840.58
2018-03-18T05:47:43.028Z,94835.31
2018-03-18T05:50:10.664Z,94840.40
2018-03-18T05:52:38.253Z,94849.67
2018-03-18T05:55:05.945Z,94850.36
2018-03-18T05:57:33.528Z,94852.67
2018-03-18T06:00:01.112Z,94860.24
2018-03-18T06:02:28.714Z,94861.19
2018-03-18T06:04:56.328Z,94856.75
2018-03-18T06:07:23.912Z,94855.16
2018-03-18T06:09:51.502Z,94865.72
2018-03-18T06:12:19.109Z,94863.00
2018-03-18T06:14:46.703Z,94867.94
2018-03-18T06:17:14.282Z,94878.50
2018-03-18T06:19:41.856Z,94874.32
2018-03-18T06:22:09.517Z,94868.83
2018-03-18T06:24:37.094Z,94879.95
2018-03-18T06:27:05.213Z,94860.70
2018-03-18T06:29:32.845Z,94870.64
2018-03-18T06:32:02.633Z,94875.03
2018-03-18T06:34:30.139Z,94877.67
2018-03-18T06:36:57.661Z,94872.31
2018-03-18T06:39:26.123Z,94877.66
2018-03-18T06:41:53.728Z,94886.06
2018-03-18T06:44:21.323Z,94884.19
2018-03-18T06:46:48.894Z,94889.58
2018-03-18T06:49:16.483Z,94894.61
2018-03-18T06:51:44.102Z,94903.89
2018-03-18T06:54:11.757Z,94891.60
2018-03-18T06:56:39.328Z,94895.09
2018-03-18T06:59:06.905Z,94895.22
2018-03-18T07:01:34.479Z,94900.00
2018-03-18T07:04:03.816Z,94898.36
2018-03-18T07:06:31.505Z,94904.81
2018-03-18T07:09:02.117Z,94897.66
2018-03-18T07:11:30.850Z,94903.00
2018-03-18T07:13:59.870Z,94894.36
2018-03-18T07:16:27.728Z,94900.28
2018-03-18T07:18:55.551Z,94899.54
2018-03-18T07:21:23.223Z,94906.42
2018-03-18T07:23:50.769Z,94905.00
2018-03-18T07:26:18.325Z,94901.78
2018-03-18T07:28:45.909Z,94905.38
2018-03-18T07:31:13.799Z,94901.78
2018-03-18T07:33:42.669Z,94905.11
2018-03-18T07:36:10.814Z,94904.16
2018-03-18T07:38:38.627Z,94911.88
2018-03-18T07:41:06.271Z,94902.48
2018-03-18T07:43:34.214Z,94900.81
2018-03-18T07:46:01.815Z,94895.11
2018-03-18T07:48:29.370Z,94904.78
2018-03-18T07:50:56.929Z,94903.98
2018-03-18T07:53:24.514Z,94913.02
2018-03-18T07:55:54.698Z,94911.05
2018-03-18T07:58:23.590Z,94912.94
2018-03-18T08:00:53.261Z,94918.95
2018-03-18T08:03:21.152Z,94915.95
2018-03-18T08:05:48.748Z,94918.34
2018-03-18T08:08:16.339Z,94915.02
2018-03-18T08:10:43.929Z,94909.20
2018-03-18T08:13:12.396Z,94908.16
2018-03-18T08:15:40.374Z,94910.92
2018-03-18T08:18:07.984Z,94905.72
2018-03-18T08:20:35.542Z,94919.09
2018-03-18T08:23:03.167Z,94925.95
2018-03-18T08:25:30.755Z,94917.71
2018-03-18T08:27:58.413Z,94923.20
2018-03-18T08:30:25.980Z,94928.07
2018-03-18T08:32:53.575Z,94930.52
2018-03-18T08:35:21.183Z,94932.49
2018-03-18T08:37:48.826Z,94931.67
2018-03-18T08:40:17.043Z,94932.17
2018-03-18T08:42:44.650Z,94931.13
2018-03-18T08:45:13.034Z,94931.94
2018-03-18T08:47:40.607Z,94936.30
2018-03-18T08:50:08.185Z,94936.20
2018-03-18T08:52:36.008Z,94935.92
2018-03-18T08:55:03.616Z,94939.09
2018-03-18T08:57:31.165Z,94935.34
2018-03-18T08:59:58.737Z,94930.84
2018-03-18T09:02:26.336Z,94940.69
2018-03-18T09:04:53.890Z,94940.70
2018-03-18T09:07:21.488Z,94937.90
2018-03-18T09:09:49.092Z,94935.92
2018-03-18T09:12:16.701Z,94939.44
2018-03-18T09:14:44.282Z,94930.42
2018-03-18T09:17:12.270Z,94935.53
2018-03-18T09:19:39.855Z,94928.15
2018-03-18T09:22:07.495Z,94932.98
2018-03-18T09:24:35.082Z,94933.23
2018-03-18T09:27:02.895Z,94940.80
2018-03-18T09:29:30.864Z,94941.64
2018-03-18T09:31:58.467Z,94938.85
2018-03-18T09:34:26.049Z,94934.42
2018-03-18T09:36:53.636Z,94940.55
2018-03-18T09:39:23.299Z,94937.28
2018-03-18T09:41:51.026Z,94949.53
2018-03-18T09:44:18.618Z,94956.91
2018-03-18T09:46:46.213Z,94955.80
2018-03-18T09:49:13.810Z,94958.05
2018-03-18T09:51:41.386Z,94956.36
2018-03-18T09:54:09.151Z,94955.66
2018-03-18T09:56:36.766Z,94949.45
2018-03-18T09:59:04.332Z,94947.94
2018-03-18T10:01:31.944Z,94948.98
2018-03-18T10:03:59.535Z,94952.42
2018-03-18T10:06:27.128Z,94945.48
2018-03-18T10:08:54.714Z,94960.09
2018-03-18T10:11:22.330Z,94958.02
2018-03-18T10:13:49.892Z,94956.52
2018-03-18T10:16:17.508Z,94968.73
2018-03-18T10:18:45.090Z,94959.89
2018-03-18T10:21:13.504Z,94956.44
2018-03-18T10:23:41.159Z,94953.04
2018-03-18T10:26:08.863Z,94950.73
2018-03-18T10:28:36.411Z,94963.66
2018-03-18T10:31:04.039Z,94973.20
2018-03-18T10:33:31.628Z,94964.52
2018-03-18T10:35:59.182Z,94962.82
2018-03-18T10:38:26.768Z,94976.02
2018-03-18T10:40:57.975Z,94965.57
2018-03-18T10:43:25.892Z,94966.42
2018-03-18T10:45:53.501Z,94975.48
2018-03-18T10:48:21.062Z,94967.91
2018-03-18T10:50:48.622Z,94963.11
2018-03-18T10:53:19.167Z,94960.45
2018-03-18T10:55:46.678Z,94968.09
2018-03-18T10:58:14.203Z,94975.06
2018-03-18T11:00:43.534Z,94983.36
2018-03-18T11:03:11.660Z,94981.83
2018-03-18T11:05:47.942Z,94979.03
2018-03-18T11:08:15.487Z,94973.48
2018-03-18T11:10:42.994Z,94973.55
2018-03-18T11:13:10.575Z,94969.30
2018-03-18T11:18:12.118Z,94964.05
2018-03-18T11:20:39.632Z,94955.98
2018-03-18T11:23:07.156Z,94967.41
2018-03-18T11:25:34.710Z,94966.85
2018-03-18T11:28:02.260Z,94969.36
2018-03-18T11:30:29.791Z,94969.87
2018-03-18T11:32:57.324Z,94973.77
2018-03-18T11:35:24.856Z,94968.69
2018-03-18T11:37:52.387Z,94966.06
2018-03-18T11:40:19.911Z,94960.55
2018-03-18T11:42:47.421Z,94960.03
2018-03-18T11:45:14.987Z,94955.44
2018-03-18T11:47:42.512Z,94958.66
2018-03-18T11:50:10.008Z,94951.32
2018-03-18T11:52:37.535Z,94964.41
2018-03-18T11:55:05.048Z,94963.53
2018-03-18T11:57:32.556Z,94964.97
2018-03-18T12:00:00.072Z,94962.20
2018-03-18T12:02:27.582Z,94972.91
2018-03-18T12:04:55.096Z,94972.57
2018-03-18T12:07:22.603Z,94985.49
2018-03-18T12:09:50.119Z,94969.02
2018-03-18T12:12:17.671Z,94976.44
2018-03-18T12:14:45.274Z,94984.70
2018-03-18T12:17:12.775Z,94976.11
2018-03-18T12:19:40.309Z,94975.38
2018-03-18T12:22:07.804Z,94955.46
2018-03-18T12:24:35.307Z,94960.07
2018-03-18T12:27:02.918Z,94959.22
2018-03-18T12:29:30.614Z,94961.05
2018-03-18T12:31:58.171Z,94960.12
2018-03-18T12:34:26.250Z,94963.04
2018-03-18T12:36:53.843Z,94956.80
2018-03-18T12:39:21.684Z,94961.20
2018-03-18T12:41:49.527Z,94963.04
2018-03-18T12:44:17.211Z,94969.03
2018-03-18T12:46:44.791Z,94970.58
2018-03-18T12:49:12.381Z,94969.81
2018-03-18T12:51:39.952Z,94981.95
2018-03-18T12:54:07.521Z,94978.19
2018-03-18T12:56:35.106Z,94968.48
2018-03-18T12:59:02.758Z,94976.93
2018-03-18T13:01:30.874Z,94978.27
2018-03-18T13:03:59.893Z,94984.98
2018-03-18T13:06:29.225Z,94975.84
2018-03-18T13:08:56.826Z,94968.40
2018-03-18T13:11:24.408Z,94976.68
2018-03-18T13:13:52.047Z,94978.65
2018-03-18T13:16:19.642Z,94976.86
2018-03-18T13:18:47.207Z,94974.28
2018-03-18T13:21:14.767Z,94980.72
2018-03-18T13:23:42.354Z,94983.08
2018-03-18T13:26:10.127Z,94989.30
2018-03-18T13:28:37.754Z,94982.75
2018-03-18T13:31:05.939Z,94992.13
2018-03-18T13:33:33.486Z,95000.91
2018-03-18T13:36:01.111Z,95009.81
2018-03-18T13:38:28.724Z,95004.61
2018-03-18T13:40:56.342Z,95009.05
2018-03-18T13:43:24.851Z,95008.92
2018-03-18T13:45:52.485Z,95008.45
2018-03-18T13:48:20.143Z,95015.15
2018-03-18T13:50:47.662Z,95013.52
2018-03-18T13:53:15.292Z,95018.24
2018-03-18T13:55:42.949Z,95014.06
2018-03-18T13:58:12.755Z,95013.40
2018-03-18T14:00:40.309Z,95012.64
2018-03-18T14:03:08.239Z,95010.85
2018-03-18T14:05:35.936Z,95015.32
2018-03-18T14:08:03.498Z,95014.39
2018-03-18T14:10:31.763Z,95014.11
2018-03-18T14:12:59.499Z,94998.11
2018-03-18T14:15:27.153Z,94991.47
2018-03-18T14:17:54.761Z,94989.69
2018-03-18T14:20:22.864Z,95000.44
2018-03-18T14:22:50.443Z,95016.85
2018-03-18T14:25:18.053Z,95014.01
2018-03-18T14:27:55.170Z,95010.08
2018-03-18T14:30:22.955Z,94996.09
2018-03-18T14:32:50.520Z,95011.59
2018-03-18T14:35:18.545Z,95002.38
2018-03-18T14:37:46.270Z,95004.96
2018-03-18T14:40:14.165Z,95014.36
2018-03-18T14:42:41.777Z,95012.70
2018-03-18T14:45:09.623Z,95014.27
2018-03-18T14:47:37.364Z,95016.26
2018-03-18T14:50:04.950Z,95011.19
2018-03-18T14:52:32.634Z,95013.62
2018-03-18T14:55:00.582Z,95008.27
2018-03-18T14:57:28.376Z,95007.22
2018-03-18T14:59:56.045Z,94998.01
2018-03-18T15:02:23.633Z,95000.93
2018-03-18T15:04:51.608Z,95004.23
2018-03-18T15:07:19.387Z,95000.20
2018-03-18T15:09:47.056Z,95004.88
2018-03-18T15:12:14.691Z,95012.11
2018-03-18T15:14:42.295Z,95024.17
2018-03-18T15:17:11.360Z,95021.66
2018-03-18T15:19:39.179Z,95031.02
2018-03-18T15:22:07.293Z,95027.09
2018-03-18T15:24:34.933Z,95028.25
2018-03-18T15:27:05.792Z,95032.25
2018-03-18T15:29:37.174Z,95041.58
2018-03-18T15:32:04.903Z,95042.95
2018-03-18T15:34:32.525Z,95045.97
2018-03-18T15:37:00.184Z,95052.56
2018-03-18T15:39:27.924Z,95050.72
2018-03-18T15:41:56.515Z,95050.02
2018-03-18T15:44:24.313Z,95057.16
2018-03-18T15:46:51.934Z,95057.33
2018-03-18T15:49:20.981Z,95062.09
2018-03-18T15:51:49.334Z,95063.95
2018-03-18T15:54:17.371Z,95071.13
2018-03-18T15:56:49.114Z,95073.23
2018-03-18T15:59:24.071Z,95072.99
2018-03-18T16:01:51.756Z,95067.55
2018-03-18T16:04:19.602Z,95067.17
2018-03-18T16:06:47.465Z,95067.67
2018-03-18T16:09:15.526Z,95074.83
2018-03-18T16:11:43.195Z,95072.37
2018-03-18T16:14:10.861Z,95072.62
2018-03-18T16:16:38.464Z,95078.00
2018-03-18T16:19:06.537Z,95080.21
2018-03-18T16:24:25.121Z,95089.38
2018-03-18T16:26:52.719Z,95089.69
2018-03-18T16:29:32.116Z,95092.70
2018-03-18T16:31:59.760Z,95098.77
2018-03-18T16:34:27.999Z,95090.23
2018-03-18T16:36:55.650Z,95095.88
2018-03-18T16:39:25.864Z,95097.12
2018-03-18T16:41:53.507Z,95106.71
2018-03-18T16:44:21.621Z,95107.23
2018-03-18T16:46:49.374Z,95107.23
2018-03-18T16:49:18.979Z,95108.54
2018-03-18T16:51:46.571Z,95118.14
2018-03-18T16:54:14.170Z,95116.95
2018-03-18T16:56:41.765Z,95122.47
2018-03-18T16:59:09.426Z,95127.94
2018-03-18T17:01:37.309Z,95124.28
2018-03-18T17:04:04.891Z,95132.20
2018-03-18T17:06:32.518Z,95129.52
2018-03-18T17:09:00.409Z,95142.68
2018-03-18T17:11:29.081Z,95139.34
2018-03-18T17:13:56.730Z,95138.45
2018-03-18T17:16:26.136Z,95139.71
2018-03-18T17:18:53.736Z,95141.84
2018-03-18T17:21:22.825Z,95154.37
2018-03-18T17:23:50.661Z,95153.69
2018-03-18T17:26:18.305Z,95154.88
2018-03-18T17:28:45.876Z,95145.58
2018-03-18T17:31:15.331Z,95148.35
2018-03-18T17:33:42.935Z,95151.63
2018-03-18T17:36:10.824Z,95155.02
2018-03-18T17:38:38.412Z,95165.88
2018-03-18T17:43:39.891Z,95168.03
2018-03-18T17:46:19.134Z,95169.91
2018-03-18T17:48:58.569Z,95170.54
2018-03-18T17:51:38.326Z,95172.67
2018-03-18T17:54:17.535Z,95185.01
2018-03-18T17:56:45.470Z,95171.57
2018-03-18T17:59:13.168Z,95173.25
2018-03-18T18:01:40.742Z,95181.32
2018-03-18T18:04:08.378Z,95183.54
2018-03-18T18:06:35.980Z,95197.45
2018-03-18T18:09:03.971Z,95189.64
2018-03-18T18:11:31.541Z,95191.27
2018-03-18T18:13:59.495Z,95182.35
2018-03-18T18:16:27.063Z,95184.86
2018-03-18T18:18:54.621Z,95192.18
2018-03-18T18:21:23.028Z,95191.38
2018-03-18T18:23:50.675Z,95189.53
2018-03-18T18:26:18.255Z,95189.33
2018-03-18T18:28:45.838Z,95196.22
2018-03-18T18:31:14.084Z,95193.83
2018-03-18T18:33:41.642Z,95200.38
2018-03-18T18:36:09.418Z,95201.41
2018-03-18T18:38:36.973Z,95216.72
2018-03-18T18:41:04.691Z,95202.13
2018-03-18T18:43:39.727Z,95206.58
2018-03-18T18:46:07.330Z,95215.29
2018-03-18T18:48:34.865Z,95218.17
2018-03-18T18:51:02.439Z,95218.23
2018-03-18T18:53:30.940Z,95216.67
2018-03-18T18:55:58.495Z,95216.73
2018-03-18T18:58:26.090Z,95218.23
2018-03-18T19:00:53.683Z,95226.86
2018-03-18T19:03:21.250Z,95233.95
2018-03-18T19:05:50.906Z,95230.30
2018-03-18T19:08:18.555Z,95238.64
2018-03-18T19:10:46.349Z,95249.30
2018-03-18T19:16:05.925Z,95239.64
2018-03-18T19:18:34.021Z,95240.81
2018-03-18T19:21:01.588Z,95231.73
2018-03-18T19:23:29.214Z,95233.38
2018-03-18T19:25:56.773Z,95233.55
2018-03-18T19:28:25.002Z,95234.66
2018-03-18T19:30:52.568Z,95238.44
2018-03-18T19:33:21.816Z,95236.72
2018-03-18T19:35:49.340Z,95234.05
2018-03-18T19:38:19.094Z,95240.22
2018-03-18T19:40:46.614Z,95245.20
2018-03-18T19:43:17.783Z,95244.00
2018-03-18T19:45:45.475Z,95240.22
2018-03-18T19:48:14.617Z,95243.97
2018-03-18T19:50:42.232Z,95246.47
2018-03-18T19:53:10.193Z,95249.41
2018-03-18T19:55:37.714Z,95246.16
2018-03-18T19:58:05.640Z,95248.56
2018-03-18T20:00:33.250Z,95259.91
2018-03-18T20:03:00.831Z,95261.23
2018-03-18T20:05:28.469Z,95259.85
2018-03-18T20:07:56.079Z,95263.68
2018-03-18T20:10:23.631Z,95256.77
2018-03-18T20:12:51.247Z,95265.34
2018-03-18T20:15:18.806Z,95270.58
2018-03-18T20:17:46.375Z,95256.95
2018-03-18T20:20:14.028Z,95260.45
2018-03-18T20:22:41.602Z,95257.53
2018-03-18T20:25:09.720Z,95267.83
2018-03-18T20:27:37.365Z,95263.78
2018-03-18T20:30:04.953Z,95258.96
2018-03-18T20:32:32.526Z,95260.47
2018-03-18T20:35:00.088Z,95259.14
2018-03-18T20:37:27.681Z,95260.99
2018-03-18T20:39:55.251Z,95256.75
2018-03-18T20:42:23.043Z,95266.17
2018-03-18T20:44:50.607Z,95248.30
2018-03-18T20:47:18.208Z,95254.57
2018-03-18T20:49:46.298Z,95258.80
2018-03-18T20:52:13.873Z,95261.41
2018-03-18T20:54:41.478Z,95263.31
2018-03-18T20:57:09.237Z,95255.77
2018-03-18T20:59:36.840Z,95269.33
2018-03-18T21:04:55.331Z,95258.85
2018-03-18T21:07:22.907Z,95263.14
2018-03-18T21:09:50.470Z,95259.92
2018-03-18T21:12:18.045Z,95257.25
2018-03-18T21:14:45.664Z,95251.82
2018-03-18T21:17:13.870Z,95259.27
2018-03-18T21:19:41.491Z,95260.69
2018-03-18T21:22:09.053Z,95266.23
2018-03-18T21:24:36.624Z,95262.17
2018-03-18T21:27:05.193Z,95259.75
2018-03-18T21:29:32.809Z,95261.46
2018-03-18T21:32:00.412Z,95266.30
2018-03-18T21:34:38.711Z,95266.64
2018-03-18T21:37:06.332Z,95260.92
2018-03-18T21:39:33.895Z,95263.60
2018-03-18T21:42:01.481Z,95265.20
2018-03-18T21:44:29.073Z,95265.28
2018-03-18T21:46:57.594Z,95277.05
2018-03-18T21:49:26.762Z,95267.34
2018-03-18T21:51:54.566Z,95261.00
2018-03-18T21:54:22.827Z,95265.42
2018-03-18T21:56:50.415Z,95268.70
2018-03-18T21:59:18.038Z,95274.89
2018-03-18T22:01:45.628Z,95272.87
2018-03-18T22:04:13.224Z,95264.09
2018-03-18T22:06:40.820Z,95259.41
2018-03-18T22:09:09.139Z,95263.18
2018-03-18T22:11:36.968Z,95268.59
2018-03-18T22:14:04.557Z,95264.00
2018-03-18T22:16:32.138Z,95267.45
2018-03-18T22:22:02.755Z,95254.81
2018-03-18T22:24:30.336Z,95250.20
2018-03-18T22:26:57.915Z,95254.45
2018-03-18T22:29:25.477Z,95254.17
2018-03-18T22:31:53.068Z,95245.95
2018-03-18T22:34:20.626Z,95244.22
2018-03-18T22:36:48.179Z,95245.00
2018-03-18T22:39:15.758Z,95243.15
2018-03-18T22:41:43.360Z,95243.25
2018-03-18T22:44:10.960Z,95241.59
2018-03-18T22:46:38.531Z,95247.14
2018-03-18T22:49:06.125Z,95247.71
2018-03-18T22:51:33.708Z,95244.97
2018-03-18T22:54:01.267Z,95246.58
2018-03-18T22:56:28.859Z,95257.05
2018-03-18T22:58:56.456Z,95257.94
2018-03-18T23:01:24.071Z,95259.27
2018-03-18T23:03:52.018Z,95252.84
2018-03-18T23:06:19.587Z,95244.77
2018-03-18T23:08:47.171Z,95239.58
2018-03-18T23:11:14.742Z,95245.78
2018-03-18T23:13:42.545Z,95237.87
2018-03-18T23:16:10.129Z,95236.92
2018-03-18T23:18:37.744Z,95237.60
2018-03-18T23:21:05.344Z,95235.45
2018-03-18T23:23:32.906Z,95236.38
2018-03-18T23:26:00.471Z,95240.17
2018-03-18T23:28:28.034Z,95246.05
2018-03-18T23:30:55.637Z,95242.37
2018-03-18T23:33:23.215Z,95239.94
2018-03-18T23:35:50.828Z,95246.41
2018-03-18T23:38:19.241Z,95245.27
2018-03-18T23:40:46.830Z,95251.47
2018-03-18T23:43:14.459Z,95253.03
2018-03-18T23:45:42.051Z,95253.55
2018-03-18T23:48:09.645Z,95253.86
2018-03-18T23:50:37.253Z,95254.33
2018-03-18T23:53:04.864Z,95254.39
2018-03-18T23:55:32.436Z,95250.56
2018-03-18T23:58:00.018Z,95246.89
